Time;durP1;ratioP1;P1;durP2;ratioP2;P2;SDS_P1;SDS_P2;PMS_P1;PMS_P2;Temp;Humidity;BMP_temperature;BMP_pressure;BME280_temperature;BME280_humidity;BME280_pressure;Samples;Min_cycle;Max_cycle;Signal;HPM_P1;HPM_P2
2024/03/17 00:02:25;;;;;;;10.03;7.40;;;3.70;1.00;;;;;;5075338;28;20672;-60
2024/03/17 00:04:51;;;;;;;13.07;7.27;;;3.70;99.90;;;;;;5076213;28;20474;-60
2024/03/17 00:07:20;;;;;;;8.70;7.13;;;3.60;99.90;;;;;;5075591;28;20457;-60
2024/03/17 00:09:48;;;;;;;11.37;7.67;;;3.60;98.00;;;;;;5074559;28;20794;-60
2024/03/17 00:12:16;;;;;;;9.40;7.47;;;3.50;99.90;;;;;;5075122;28;20466;-60
2024/03/17 00:14:42;;;;;;;9.73;8.10;;;3.50;99.90;;;;;;5074578;28;20469;-60
2024/03/17 00:17:10;;;;;;;9.03;7.77;;;3.40;99.90;;;;;;5075644;28;20751;-60
2024/03/17 00:19:36;;;;;;;11.73;8.17;;;3.40;90.70;;;;;;5075144;28;20461;-60
2024/03/17 00:22:04;;;;;;;10.17;7.03;;;3.30;73.70;;;;;;5076595;28;20468;-60
2024/03/17 00:24:34;;;;;;;10.77;7.90;;;3.30;34.60;;;;;;5077444;28;20464;-60
2024/03/17 00:27:03;;;;;;;8.93;7.80;;;3.30;99.90;;;;;;5077493;28;20930;-60
2024/03/17 00:29:31;;;;;;;10.17;7.63;;;3.20;99.90;;;;;;5076248;28;20457;-60
2024/03/17 00:31:59;;;;;;;13.37;7.87;;;3.10;99.90;;;;;;5076767;28;20965;-60
2024/03/17 00:34:26;;;;;;;11.27;7.80;;;3.10;99.90;;;;;;5077207;28;20457;-60
2024/03/17 00:36:53;;;;;;;11.30;7.83;;;3.10;99.90;;;;;;5077301;28;20492;-60
2024/03/17 00:39:20;;;;;;;13.00;8.53;;;3.00;99.90;;;;;;5077454;28;20620;-59
2024/03/17 00:41:47;;;;;;;10.60;8.33;;;3.00;99.90;;;;;;5077505;28;20802;-60
2024/03/17 00:44:15;;;;;;;9.30;7.93;;;2.90;99.90;;;;;;5076946;28;20464;-60
2024/03/17 00:46:43;;;;;;;9.77;7.87;;;2.90;99.90;;;;;;5077391;28;20457;-60
2024/03/17 00:49:10;;;;;;;11.00;8.13;;;3.00;1.00;;;;;;5077548;28;20537;-59
2024/03/17 00:51:39;;;;;;;11.33;8.50;;;2.90;1.00;;;;;;5076316;28;20472;-60
2024/03/17 00:54:06;;;;;;;9.60;7.90;;;2.90;1.00;;;;;;5076271;28;20515;-60
2024/03/17 00:56:33;;;;;;;14.23;9.50;;;2.80;1.00;;;;;;5075461;28;20521;-60
2024/03/17 00:58:59;;;;;;;9.90;7.83;;;2.80;1.00;;;;;;5077183;28;20548;-60
2024/03/17 01:01:28;;;;;;;9.67;7.30;;;2.80;1.00;;;;;;5076690;28;20453;-59
2024/03/17 01:03:55;;;;;;;10.17;8.00;;;2.90;1.00;;;;;;5077447;28;20882;-60
2024/03/17 01:06:22;;;;;;;10.40;8.73;;;2.80;1.00;;;;;;5077024;28;20460;-60
2024/03/17 01:08:49;;;;;;;12.20;9.43;;;2.80;1.00;;;;;;5076235;28;20517;-60
2024/03/17 01:11:18;;;;;;;13.90;9.33;;;2.70;1.00;;;;;;5076448;28;20457;-60
2024/03/17 01:13:46;;;;;;;14.07;10.07;;;2.60;1.00;;;;;;5076748;28;20504;-59
2024/03/17 01:16:13;;;;;;;12.93;9.63;;;2.60;1.00;;;;;;5075688;28;20492;-59
2024/03/17 01:18:43;;;;;;;16.13;10.40;;;2.60;99.90;;;;;;5077191;28;20879;-60
2024/03/17 01:21:10;;;;;;;14.30;9.20;;;2.60;99.90;;;;;;5076568;28;20555;-60
2024/03/17 01:23:36;;;;;;;11.80;8.27;;;2.60;99.90;;;;;;5075278;28;20526;-60
2024/03/17 01:26:04;;;;;;;14.30;10.30;;;2.50;99.90;;;;;;5075833;28;20459;-60
2024/03/17 01:28:32;;;;;;;15.40;10.77;;;2.50;99.90;;;;;;5075127;28;20481;-60
2024/03/17 01:30:59;;;;;;;15.43;11.40;;;2.50;1.00;;;;;;5076124;28;20505;-59
2024/03/17 01:33:26;;;;;;;16.43;13.40;;;2.40;1.00;;;;;;5074566;28;20493;-60
2024/03/17 01:35:55;;;;;;;13.37;11.20;;;2.40;1.00;;;;;;5075311;28;20464;-59
2024/03/17 01:38:21;;;;;;;14.33;10.43;;;2.50;1.00;;;;;;5074972;28;20552;-59
2024/03/17 01:40:49;;;;;;;15.37;11.90;;;2.50;1.00;;;;;;5075981;28;20457;-59
2024/03/17 01:43:15;;;;;;;11.80;9.90;;;2.50;1.00;;;;;;5076982;28;20875;-59
2024/03/17 01:45:43;;;;;;;14.70;10.83;;;2.40;1.00;;;;;;5077044;28;20462;-59
2024/03/17 01:48:16;;;;;;;12.83;9.90;;;2.50;1.00;;;;;;5076608;28;20913;-60
2024/03/17 01:50:45;;;;;;;14.93;9.60;;;2.50;99.90;;;;;;5076956;28;20457;-60
2024/03/17 01:53:13;;;;;;;13.27;9.87;;;2.50;1.00;;;;;;5076772;28;20931;-59
2024/03/17 01:55:44;;;;;;;17.03;9.70;;;2.40;1.00;;;;;;5076854;28;20926;-59
2024/03/17 01:58:11;;;;;;;13.90;9.70;;;2.40;1.00;;;;;;5076634;28;20453;-60
2024/03/17 02:00:39;;;;;;;12.87;9.17;;;2.40;99.90;;;;;;5077390;28;20459;-59
2024/03/17 02:03:06;;;;;;;13.73;9.63;;;2.40;1.00;;;;;;5076548;28;20457;-59
2024/03/17 02:05:34;;;;;;;11.63;8.67;;;2.40;1.00;;;;;;5076253;28;20874;-59
2024/03/17 02:08:01;;;;;;;10.20;8.73;;;2.30;1.00;;;;;;5078078;28;20468;-59
2024/03/17 02:10:30;;;;;;;11.00;8.87;;;2.30;1.00;;;;;;5080664;28;20465;-59
2024/03/17 02:12:56;;;;;;;12.63;9.10;;;2.30;1.00;;;;;;5079334;28;20472;-59
2024/03/17 02:15:24;;;;;;;11.47;9.47;;;2.30;1.00;;;;;;5080892;28;20488;-60
2024/03/17 02:17:50;;;;;;;12.03;9.27;;;2.30;1.00;;;;;;5080516;28;20784;-59
2024/03/17 02:20:17;;;;;;;12.50;10.07;;;2.30;1.00;;;;;;5080585;28;20875;-59
2024/03/17 02:22:45;;;;;;;11.63;8.73;;;2.30;1.00;;;;;;5079971;28;20488;-59
2024/03/17 02:25:12;;;;;;;12.67;9.17;;;2.20;1.00;;;;;;5080722;28;20458;-59
2024/03/17 02:27:38;;;;;;;11.70;8.70;;;2.30;1.00;;;;;;5079881;28;20492;-60
2024/03/17 02:30:09;;;;;;;13.87;9.10;;;2.30;1.00;;;;;;5078469;28;20510;-60
2024/03/17 02:32:35;;;;;;;12.17;9.70;;;2.20;1.00;;;;;;5079135;28;20465;-60
2024/03/17 02:35:05;;;;;;;16.37;12.27;;;2.10;1.00;;;;;;5078443;28;20488;-60
2024/03/17 02:37:32;;;;;;;13.73;11.40;;;2.10;1.00;;;;;;5078212;28;20660;-60
2024/03/17 02:40:01;;;;;;;12.90;10.10;;;2.10;99.90;;;;;;5078759;28;20736;-60
2024/03/17 02:42:28;;;;;;;11.47;10.27;;;2.00;99.90;;;;;;5078556;28;20937;-59
2024/03/17 02:44:55;;;;;;;18.43;11.70;;;2.10;99.90;;;;;;5080096;28;20801;-59
2024/03/17 02:47:23;;;;;;;14.07;11.10;;;2.00;99.90;;;;;;5079962;28;20547;-60
2024/03/17 02:49:52;;;;;;;15.93;9.87;;;2.00;1.00;;;;;;5079565;28;20465;-60
2024/03/17 02:52:19;;;;;;;14.00;10.23;;;1.90;99.90;;;;;;5080172;28;20462;-60
2024/03/17 02:54:46;;;;;;;11.70;9.30;;;1.90;99.90;;;;;;5079857;28;20565;-60
2024/03/17 02:57:15;;;;;;;11.17;9.83;;;1.90;99.90;;;;;;5079814;28;20503;-60
2024/03/17 02:59:43;;;;;;;15.07;10.93;;;1.80;1.00;;;;;;5080084;28;20457;-60
2024/03/17 03:02:10;;;;;;;12.40;10.00;;;1.80;1.00;;;;;;5079377;28;20484;-60
2024/03/17 03:04:37;;;;;;;13.57;9.30;;;1.90;99.90;;;;;;5079977;28;20960;-60
2024/03/17 03:07:05;;;;;;;11.30;9.80;;;1.80;99.90;;;;;;5079933;28;20457;-60
2024/03/17 03:09:32;;;;;;;12.10;9.03;;;1.90;99.90;;;;;;5079032;28;20461;-59
2024/03/17 03:12:01;;;;;;;11.30;8.53;;;1.80;1.00;;;;;;5079054;28;20461;-59
2024/03/17 03:14:30;;;;;;;13.10;9.60;;;1.80;58.00;;;;;;5079609;28;20461;-60
2024/03/17 03:16:58;;;;;;;12.63;9.47;;;1.70;1.00;;;;;;5079743;28;20492;-60
2024/03/17 03:19:25;;;;;;;18.70;10.10;;;1.70;1.00;;;;;;5079160;28;20464;-59
2024/03/17 03:21:52;;;;;;;13.57;9.90;;;1.70;1.00;;;;;;5079302;28;20510;-60
2024/03/17 03:24:20;;;;;;;11.87;9.33;;;1.60;1.00;;;;;;5078987;28;20548;-60
2024/03/17 03:26:48;;;;;;;11.27;9.30;;;1.60;1.00;;;;;;5079189;28;20575;-60
2024/03/17 03:29:15;;;;;;;14.10;9.63;;;1.60;48.30;;;;;;5079112;28;20501;-60
2024/03/17 03:31:44;;;;;;;12.63;10.13;;;1.50;1.00;;;;;;5078659;28;20457;-60
2024/03/17 03:34:11;;;;;;;12.40;9.53;;;1.50;1.00;;;;;;5079588;28;20789;-60
2024/03/17 03:36:41;;;;;;;13.20;8.83;;;1.50;1.00;;;;;;5078952;28;20562;-60
2024/03/17 03:39:11;;;;;;;14.33;9.80;;;1.50;98.50;;;;;;5079112;28;20458;-59
2024/03/17 03:41:38;;;;;;;14.53;9.80;;;1.50;5.60;;;;;;5079015;28;20953;-60
2024/03/17 03:44:05;;;;;;;10.63;8.60;;;1.50;93.50;;;;;;5078520;28;20489;-60
2024/03/17 03:46:33;;;;;;;11.67;9.87;;;1.50;99.90;;;;;;5078738;28;20496;-60
2024/03/17 03:49:01;;;;;;;13.13;10.30;;;1.50;1.00;;;;;;5079180;28;20518;-59
2024/03/17 03:51:28;;;;;;;12.27;9.67;;;1.50;52.70;;;;;;5078865;28;20457;-60
2024/03/17 03:53:56;;;;;;;14.50;8.77;;;1.50;31.40;;;;;;5078733;28;20559;-60
2024/03/17 03:56:23;;;;;;;10.80;9.47;;;1.60;56.20;;;;;;5078212;28;20532;-60
2024/03/17 03:58:53;;;;;;;13.43;9.30;;;1.60;9.60;;;;;;5078799;28;20875;-60
2024/03/17 04:01:22;;;;;;;12.70;10.00;;;1.60;1.00;;;;;;5078947;28;20886;-60
2024/03/17 04:03:49;;;;;;;15.57;10.83;;;1.70;12.10;;;;;;5078534;28;20883;-60
2024/03/17 04:06:18;;;;;;;16.47;11.40;;;1.70;1.00;;;;;;5078529;28;20461;-60
2024/03/17 04:08:46;;;;;;;12.77;9.80;;;1.80;1.00;;;;;;5077479;28;20939;-60
2024/03/17 04:11:13;;;;;;;18.40;11.00;;;1.90;1.00;;;;;;5077971;28;20489;-59
2024/03/17 04:13:40;;;;;;;14.30;10.87;;;1.80;1.00;;;;;;5078164;28;20894;-60
2024/03/17 04:16:10;;;;;;;13.50;10.23;;;1.80;1.00;;;;;;5078210;28;20806;-60
2024/03/17 04:18:37;;;;;;;13.70;10.77;;;1.70;1.00;;;;;;5077976;28;20457;-60
2024/03/17 04:21:07;;;;;;;14.53;10.30;;;1.70;1.00;;;;;;5076709;28;20838;-60
2024/03/17 04:23:37;;;;;;;16.83;10.97;;;1.80;1.00;;;;;;5075978;28;20468;-60
2024/03/17 04:26:07;;;;;;;15.57;10.00;;;1.80;1.00;;;;;;5076511;28;20492;-60
2024/03/17 04:28:35;;;;;;;14.37;10.57;;;1.90;1.00;;;;;;5076207;28;21013;-61
2024/03/17 04:31:06;;;;;;;13.40;10.03;;;1.80;1.00;;;;;;5076242;28;20522;-61
2024/03/17 04:33:34;;;;;;;17.50;11.53;;;1.80;1.00;;;;;;5076762;28;20932;-60
2024/03/17 04:36:02;;;;;;;16.23;10.40;;;1.70;1.00;;;;;;5076857;28;20525;-60
2024/03/17 04:38:29;;;;;;;15.60;10.83;;;1.70;1.00;;;;;;5077150;28;20461;-60
2024/03/17 04:41:04;;;;;;;14.30;10.80;;;1.70;55.70;;;;;;5078286;28;20492;-59
2024/03/17 04:43:32;;;;;;;16.80;10.80;;;1.80;99.90;;;;;;5077694;28;20900;-60
2024/03/17 04:46:05;;;;;;;17.80;10.57;;;1.80;99.90;;;;;;5077491;28;20460;-59
2024/03/17 04:48:32;;;;;;;15.10;10.70;;;1.80;99.90;;;;;;5078054;28;20949;-60
2024/03/17 04:51:00;;;;;;;14.93;10.90;;;1.90;99.90;;;;;;5078200;28;20457;-60
2024/03/17 04:53:27;;;;;;;14.23;10.67;;;1.90;1.00;;;;;;5077915;28;20493;-60
2024/03/17 04:56:06;;;;;;;14.40;11.40;;;2.00;1.00;;;;;;5077693;28;20840;-60
2024/03/17 04:58:34;;;;;;;17.50;12.50;;;2.00;1.00;;;;;;5077990;28;20480;-60
2024/03/17 05:01:06;;;;;;;17.73;11.57;;;2.10;1.00;;;;;;5077642;28;20468;-60
2024/03/17 05:03:33;;;;;;;14.70;11.40;;;2.20;1.00;;;;;;5077420;28;20489;-60
2024/03/17 05:06:02;;;;;;;16.37;12.83;;;2.20;1.00;;;;;;5077430;28;20928;-60
2024/03/17 05:08:29;;;;;;;19.10;12.40;;;2.30;1.00;;;;;;5077880;28;20904;-59
2024/03/17 05:11:00;;;;;;;22.07;10.97;;;2.30;1.00;;;;;;5077893;28;20459;-59
2024/03/17 05:13:29;;;;;;;17.67;11.77;;;2.20;99.90;;;;;;5077095;28;20457;-60
2024/03/17 05:15:57;;;;;;;17.13;12.37;;;2.30;1.00;;;;;;5077137;28;20514;-60
2024/03/17 05:18:25;;;;;;;17.10;12.83;;;2.30;99.90;;;;;;5077441;28;20472;-60
2024/03/17 05:21:03;;;;;;;18.50;12.77;;;2.30;99.90;;;;;;5078046;28;20457;-60
2024/03/17 05:23:31;;;;;;;15.17;12.00;;;2.30;99.90;;;;;;5077347;28;20878;-60
2024/03/17 05:25:59;;;;;;;20.57;12.03;;;2.30;99.90;;;;;;5077444;28;20490;-60
2024/03/17 05:28:28;;;;;;;17.20;13.07;;;2.30;99.90;;;;;;5077100;28;20528;-59
2024/03/17 05:30:57;;;;;;;20.83;13.03;;;2.30;99.90;;;;;;5077461;28;20478;-60
2024/03/17 05:33:25;;;;;;;22.70;13.37;;;2.40;99.90;;;;;;5077559;28;20485;-60
2024/03/17 05:35:53;;;;;;;17.47;12.97;;;2.40;99.90;;;;;;5077043;28;20496;-59
2024/03/17 05:38:21;;;;;;;18.13;13.20;;;2.40;99.90;;;;;;5077089;28;20481;-59
2024/03/17 05:40:59;;;;;;;18.33;13.67;;;2.40;99.90;;;;;;5077679;28;20462;-60
2024/03/17 05:43:27;;;;;;;22.10;14.10;;;2.30;99.90;;;;;;5080608;28;20514;-60
2024/03/17 05:45:58;;;;;;;24.70;15.90;;;2.40;99.90;;;;;;5080742;28;20496;-60
2024/03/17 05:48:28;;;;;;;18.63;13.30;;;2.50;99.90;;;;;;5082407;28;20819;-60
2024/03/17 05:50:56;;;;;;;22.40;15.50;;;2.50;99.90;;;;;;5082244;28;20457;-60
2024/03/17 05:53:25;;;;;;;18.97;14.83;;;2.60;99.90;;;;;;5081955;28;20453;-60
2024/03/17 05:55:52;;;;;;;23.13;15.00;;;2.60;99.90;;;;;;5082011;28;20468;-59
2024/03/17 05:58:20;;;;;;;22.37;14.83;;;2.60;99.90;;;;;;5082075;28;20769;-60
2024/03/17 06:00:48;;;;;;;21.00;15.90;;;2.60;99.90;;;;;;5082048;28;20465;-59
2024/03/17 06:03:17;;;;;;;18.67;13.03;;;2.70;99.90;;;;;;5082010;28;20457;-60
2024/03/17 06:05:45;;;;;;;18.63;12.93;;;2.60;99.90;;;;;;5081516;28;20461;-60
2024/03/17 06:08:14;;;;;;;17.63;13.47;;;2.70;99.90;;;;;;5081381;28;20457;-60
2024/03/17 06:10:45;;;;;;;19.77;13.90;;;2.70;99.90;;;;;;5081285;28;20457;-60
2024/03/17 06:13:13;;;;;;;21.33;14.37;;;2.70;99.90;;;;;;5081458;28;20491;-59
2024/03/17 06:15:41;;;;;;;18.80;13.00;;;2.80;99.90;;;;;;5081022;28;20762;-60
2024/03/17 06:18:11;;;;;;;19.60;13.47;;;2.80;99.90;;;;;;5080673;28;20614;-61
2024/03/17 06:20:43;;;;;;;19.67;13.43;;;2.90;99.90;;;;;;5080182;28;20797;-60
2024/03/17 06:23:10;;;;;;;20.90;13.40;;;2.90;99.90;;;;;;5080469;28;20461;-60
2024/03/17 06:25:42;;;;;;;20.60;14.07;;;3.10;99.90;;;;;;5079971;28;20500;-61
2024/03/17 06:28:10;;;;;;;22.33;13.70;;;3.20;99.90;;;;;;5079815;28;20917;-62
2024/03/17 06:30:37;;;;;;;21.30;12.97;;;3.30;1.00;;;;;;5079544;28;20521;-62
2024/03/17 06:33:06;;;;;;;18.00;12.50;;;3.40;1.00;;;;;;5080002;28;20457;-62
2024/03/17 06:35:33;;;;;;;17.10;12.80;;;3.50;99.90;;;;;;5080102;28;20760;-61
2024/03/17 06:38:02;;;;;;;20.23;13.57;;;3.70;99.90;;;;;;5080059;28;20469;-60
2024/03/17 06:40:30;;;;;;;17.73;12.20;;;3.80;1.00;;;;;;5079600;28;20544;-61
2024/03/17 06:42:58;;;;;;;15.90;11.80;;;4.00;1.00;;;;;;5079644;28;20747;-61
2024/03/17 06:45:25;;;;;;;14.43;11.67;;;4.20;99.90;;;;;;5079401;28;20461;-61
2024/03/17 06:47:52;;;;;;;12.90;10.13;;;4.40;99.90;;;;;;5079652;28;20843;-61
2024/03/17 06:50:20;;;;;;;16.40;11.27;;;4.50;99.90;;;;;;5069572;28;20450;-61
2024/03/17 06:52:47;;;;;;;13.93;10.50;;;4.50;32.60;;;;;;5058553;28;20975;-61
2024/03/17 06:55:15;;;;;;;14.40;9.97;;;4.60;1.00;;;;;;5058655;28;20504;-61
2024/03/17 06:57:44;;;;;;;13.30;10.33;;;4.60;1.00;;;;;;5059253;28;20552;-62
2024/03/17 07:00:14;;;;;;;14.30;9.87;;;4.80;1.00;;;;;;5059329;28;20558;-62
2024/03/17 07:02:43;;;;;;;16.60;11.03;;;4.80;99.90;;;;;;5058148;28;20505;-62
2024/03/17 07:05:15;;;;;;;12.73;11.30;;;4.90;99.90;;;;;;5059131;28;20462;-62
2024/03/17 07:07:42;;;;;;;12.57;8.87;;;5.10;99.90;;;;;;5059519;28;20459;-62
2024/03/17 07:10:11;;;;;;;13.70;9.87;;;5.20;1.00;;;;;;5059287;28;20500;-62
2024/03/17 07:12:40;;;;;;;14.40;9.70;;;5.40;1.00;;;;;;5058908;28;20748;-62
2024/03/17 07:15:08;;;;;;;13.90;9.80;;;5.60;99.90;;;;;;5059035;28;20508;-62
2024/03/17 07:17:36;;;;;;;18.67;10.80;;;5.70;99.90;;;;;;5058651;28;20489;-62
2024/03/17 07:20:08;;;;;;;11.33;9.00;;;6.10;1.00;;;;;;5058884;28;20458;-62
2024/03/17 07:22:35;;;;;;;14.53;10.57;;;6.40;1.00;;;;;;5058481;28;20469;-63
2024/03/17 07:25:02;;;;;;;13.53;8.00;;;6.80;25.90;;;;;;5058998;28;20599;-63
2024/03/17 07:27:30;;;;;;;11.37;8.77;;;6.90;99.90;;;;;;5058558;28;20572;-63
2024/03/17 07:29:59;;;;;;;12.40;8.60;;;7.00;99.90;;;;;;5059058;28;20462;-63
2024/03/17 07:32:26;;;;;;;10.83;8.60;;;7.50;1.00;;;;;;5058552;28;20557;-63
2024/03/17 07:34:54;;;;;;;9.67;7.43;;;7.90;99.90;;;;;;5057395;28;20508;-63
2024/03/17 07:37:21;;;;;;;14.83;10.23;;;8.20;99.90;;;;;;5057091;28;20513;-62
2024/03/17 07:39:49;;;;;;;8.70;6.83;;;8.40;99.90;;;;;;5056964;28;20470;-62
2024/03/17 07:42:17;;;;;;;21.00;13.83;;;8.40;1.00;;;;;;5056869;28;20557;-62
2024/03/17 07:44:45;;;;;;;9.43;7.93;;;8.30;1.00;;;;;;5057027;28;20489;-62
2024/03/17 07:47:14;;;;;;;11.20;8.97;;;8.10;1.00;;;;;;5056695;28;20454;-62
2024/03/17 07:49:41;;;;;;;9.00;7.30;;;8.00;99.90;;;;;;5056844;28;20462;-62
2024/03/17 07:52:09;;;;;;;11.67;9.20;;;7.90;99.90;;;;;;5056941;28;20556;-62
2024/03/17 07:54:38;;;;;;;29.90;22.77;;;7.90;99.90;;;;;;5057845;28;20458;-62
2024/03/17 07:57:06;;;;;;;15.43;12.20;;;7.90;99.90;;;;;;5057645;28;20581;-62
2024/03/17 07:59:33;;;;;;;10.80;8.60;;;7.90;1.00;;;;;;5057748;28;20458;-62
2024/03/17 08:02:00;;;;;;;12.93;10.40;;;7.90;1.00;;;;;;5058029;28;20462;-62
2024/03/17 08:04:29;;;;;;;8.63;7.53;;;7.90;99.90;;;;;;5057349;28;20477;-62
2024/03/17 08:06:58;;;;;;;8.63;6.83;;;8.30;99.90;;;;;;5057939;28;20527;-62
2024/03/17 08:09:25;;;;;;;10.40;7.40;;;8.80;99.90;;;;;;5058369;28;20516;-62
2024/03/17 08:11:53;;;;;;;8.07;6.77;;;9.30;99.90;;;;;;5058414;28;20560;-62
2024/03/17 08:14:21;;;;;;;8.37;6.90;;;9.80;1.00;;;;;;5058295;28;20733;-62
2024/03/17 08:16:49;;;;;;;7.50;6.80;;;10.10;1.00;;;;;;5057964;28;20459;-62
2024/03/17 08:19:16;;;;;;;7.60;6.27;;;10.40;1.00;;;;;;5058156;28;20462;-62
2024/03/17 08:21:45;;;;;;;8.87;6.50;;;10.40;1.00;;;;;;5057914;28;20480;-62
2024/03/17 08:24:13;;;;;;;6.70;5.80;;;10.60;1.00;;;;;;5058161;28;20907;-62
2024/03/17 08:26:41;;;;;;;7.90;6.10;;;10.50;43.50;;;;;;5057364;28;20907;-62
2024/03/17 08:29:08;;;;;;;9.10;6.90;;;10.40;91.60;;;;;;5057737;28;20477;-62
2024/03/17 08:31:36;;;;;;;7.23;5.43;;;10.40;34.90;;;;;;5057752;28;20947;-62
2024/03/17 08:34:04;;;;;;;8.30;6.63;;;10.60;51.90;;;;;;5057734;28;20469;-62
2024/03/17 08:36:31;;;;;;;6.83;6.10;;;10.80;79.90;;;;;;5057309;28;20484;-62
2024/03/17 08:39:01;;;;;;;7.20;6.13;;;11.10;99.90;;;;;;5057469;28;20851;-62
2024/03/17 08:41:30;;;;;;;7.80;5.27;;;11.30;99.90;;;;;;5057494;28;20560;-62
2024/03/17 08:43:57;;;;;;;8.23;5.40;;;11.70;99.90;;;;;;5056925;28;20462;-62
2024/03/17 08:46:25;;;;;;;6.80;5.80;;;11.90;99.90;;;;;;5057725;28;20872;-62
2024/03/17 08:48:52;;;;;;;7.77;5.50;;;12.20;1.00;;;;;;5057564;28;20459;-62
2024/03/17 08:51:19;;;;;;;5.20;4.70;;;12.50;1.00;;;;;;5057989;28;20520;-62
2024/03/17 08:53:47;;;;;;;5.47;4.93;;;12.60;99.90;;;;;;5057639;28;20524;-62
2024/03/17 08:56:16;;;;;;;5.93;4.00;;;12.60;99.90;;;;;;5057783;28;20462;-62
2024/03/17 08:58:43;;;;;;;4.97;4.47;;;12.70;99.90;;;;;;5056834;28;20548;-63
2024/03/17 09:01:13;;;;;;;6.80;4.13;;;12.80;99.90;;;;;;5057877;28;20461;-62
2024/03/17 09:03:41;;;;;;;5.80;4.53;;;12.90;99.90;;;;;;5057472;28;20458;-62
2024/03/17 09:06:16;;;;;;;7.40;4.93;;;13.20;99.90;;;;;;5057308;28;20912;-62
2024/03/17 09:08:44;;;;;;;7.10;4.30;;;13.40;96.60;;;;;;5056896;28;20472;-62
2024/03/17 09:11:15;;;;;;;6.97;5.00;;;13.40;61.40;;;;;;5057187;28;20840;-60
2024/03/17 09:13:43;;;;;;;6.17;4.57;;;13.40;1.00;;;;;;5057123;28;20462;-61
2024/03/17 09:16:13;;;;;;;5.40;4.43;;;13.30;37.20;;;;;;5057592;28;20875;-60
2024/03/17 09:18:40;;;;;;;5.07;4.47;;;13.10;99.90;;;;;;5060978;28;20601;-60
2024/03/17 09:21:10;;;;;;;6.87;4.17;;;13.10;1.00;;;;;;5061256;28;20798;-61
2024/03/17 09:23:39;;;;;;;7.33;4.40;;;13.00;18.20;;;;;;5061186;28;20553;-60
2024/03/17 09:26:08;;;;;;;7.17;5.63;;;13.10;1.00;;;;;;5061376;28;20462;-60
2024/03/17 09:28:37;;;;;;;6.03;4.43;;;12.90;71.60;;;;;;5060908;28;20572;-60
2024/03/17 09:31:07;;;;;;;4.87;4.37;;;12.70;1.00;;;;;;5060729;28;20462;-61
2024/03/17 09:33:35;;;;;;;6.57;5.20;;;12.60;1.00;;;;;;5061069;28;20465;-60
2024/03/17 09:36:05;;;;;;;5.33;4.80;;;12.40;1.00;;;;;;5060998;28;20773;-60
2024/03/17 09:38:34;;;;;;;5.40;4.87;;;12.50;1.00;;;;;;5060122;28;20568;-60
2024/03/17 09:41:01;;;;;;;5.13;4.43;;;12.40;1.00;;;;;;5060732;28;20561;-61
2024/03/17 09:43:29;;;;;;;5.00;4.50;;;12.40;1.00;;;;;;5060816;28;20476;-60
2024/03/17 09:45:58;;;;;;;7.17;4.60;;;12.40;99.90;;;;;;5061063;28;20458;-60
2024/03/17 09:48:27;;;;;;;7.10;4.57;;;12.40;99.90;;;;;;5060936;28;20831;-60
2024/03/17 09:50:57;;;;;;;7.83;5.30;;;12.30;1.00;;;;;;5060698;28;20750;-60
2024/03/17 09:53:27;;;;;;;7.40;4.43;;;12.40;1.00;;;;;;5060546;28;20486;-60
2024/03/17 09:55:57;;;;;;;4.83;4.43;;;12.40;1.00;;;;;;5060602;28;20465;-60
2024/03/17 09:58:24;;;;;;;8.63;4.87;;;12.30;1.00;;;;;;5060143;28;20486;-59
2024/03/17 10:00:52;;;;;;;5.47;4.63;;;12.30;99.90;;;;;;5074881;28;20464;-60
2024/03/17 10:03:45;;;;;;;6.70;5.13;;;12.30;1.00;;;;;;5080018;28;20723;-60
2024/03/17 10:06:14;;;;;;;7.53;4.67;;;12.40;1.00;;;;;;5080535;28;20753;-60
2024/03/17 10:08:46;;;;;;;8.67;6.23;;;12.30;1.00;;;;;;5080473;28;20444;-59
2024/03/17 10:11:15;;;;;;;12.37;7.93;;;12.40;1.00;;;;;;5080252;28;20488;-60
2024/03/17 10:13:43;;;;;;;10.23;6.90;;;12.60;46.90;;;;;;5080190;28;20895;-60
2024/03/17 10:16:25;;;;;;;5.83;5.23;;;12.80;33.90;;;;;;5079204;28;20453;-60
2024/03/17 10:19:10;;;;;;;12.40;7.83;;;12.80;1.00;;;;;;5077293;28;20934;-61
2024/03/17 10:21:38;;;;;;;13.07;7.80;;;12.90;1.00;;;;;;5080118;28;20449;-60
2024/03/17 10:24:10;;;;;;;6.70;5.30;;;12.90;1.00;;;;;;5080089;28;20462;-62
2024/03/17 10:26:46;;;;;;;20.90;11.53;;;12.80;42.00;;;;;;5079604;28;20867;-62
2024/03/17 10:29:25;;;;;;;22.00;15.17;;;12.80;99.90;;;;;;5079608;28;20457;-62
2024/03/17 10:31:54;;;;;;;10.57;8.20;;;12.70;68.30;;;;;;5080001;28;20461;-62
2024/03/17 10:34:28;;;;;;;7.90;5.53;;;12.70;99.90;;;;;;5080309;28;20515;-62
2024/03/17 10:37:07;;;;;;;9.00;7.00;;;12.70;1.00;;;;;;5079468;28;20462;-61
2024/03/17 10:39:35;;;;;;;8.70;5.50;;;12.80;1.00;;;;;;5079949;28;20532;-61
2024/03/17 10:42:03;;;;;;;7.47;6.67;;;12.80;1.00;;;;;;5079793;28;20796;-62
2024/03/17 10:44:31;;;;;;;6.27;5.67;;;12.90;1.00;;;;;;5079697;28;20464;-62
2024/03/17 10:47:01;;;;;;;6.10;5.50;;;13.00;99.90;;;;;;5079376;28;20458;-62
2024/03/17 10:49:35;;;;;;;7.90;5.53;;;13.00;84.40;;;;;;5079845;28;20455;-62
2024/03/17 10:52:04;;;;;;;8.30;5.87;;;13.00;99.90;;;;;;5079998;28;20483;-62
2024/03/17 10:54:33;;;;;;;6.30;5.67;;;13.10;99.90;;;;;;5079048;28;20464;-61
2024/03/17 10:57:14;;;;;;;8.20;6.10;;;13.10;81.40;;;;;;5079404;28;20461;-61
2024/03/17 10:59:46;;;;;;;6.40;5.80;;;13.10;99.90;;;;;;5079788;28;20763;-61
2024/03/17 11:02:27;;;;;;;8.50;5.50;;;13.10;99.90;;;;;;5079058;28;20476;-62
2024/03/17 11:05:00;;;;;;;7.70;4.90;;;13.10;99.90;;;;;;5079293;28;20435;-61
2024/03/17 11:07:28;;;;;;;6.50;5.50;;;13.10;99.90;;;;;;5078993;28;20508;-62
2024/03/17 11:10:00;;;;;;;7.20;5.67;;;13.10;1.00;;;;;;5079412;28;20522;-62
2024/03/17 11:12:45;;;;;;;7.17;5.87;;;13.10;99.90;;;;;;5079465;28;20457;-61
2024/03/17 11:15:41;;;;;;;9.23;6.03;;;13.10;99.90;;;;;;5079259;28;20457;-62
2024/03/17 11:18:39;;;;;;;9.50;5.73;;;13.10;99.90;;;;;;5078582;28;20489;-61
2024/03/17 11:21:20;;;;;;;7.07;5.43;;;13.10;1.00;;;;;;5078393;28;20543;-61
2024/03/17 11:24:01;;;;;;;9.07;6.63;;;13.10;99.90;;;;;;5079058;28;20457;-60
2024/03/17 11:26:33;;;;;;;5.97;5.23;;;13.20;99.90;;;;;;5078500;28;20800;-61
2024/03/17 11:29:01;;;;;;;7.67;5.70;;;13.30;1.00;;;;;;5078702;28;20472;-61
2024/03/17 11:31:40;;;;;;;6.23;5.47;;;13.30;99.90;;;;;;5078464;28;20461;-61
2024/03/17 11:34:28;;;;;;;7.03;5.70;;;13.30;99.90;;;;;;5079180;28;20456;-61
2024/03/17 11:36:57;;;;;;;5.90;5.40;;;13.50;1.00;;;;;;5078604;28;20467;-61
2024/03/17 11:40:03;;;;;;;7.20;5.57;;;13.40;99.90;;;;;;5077474;28;20883;-62
2024/03/17 11:42:30;;;;;;;6.80;4.90;;;13.60;99.90;;;;;;5058851;28;20481;-62
2024/03/17 11:45:02;;;;;;;6.13;5.07;;;13.80;99.90;;;;;;5058483;28;20458;-62
2024/03/17 11:47:39;;;;;;;5.93;5.33;;;13.80;1.00;;;;;;5057891;28;20810;-61
2024/03/17 11:50:09;;;;;;;6.63;5.13;;;13.90;99.90;;;;;;5067107;28;20480;-62
2024/03/17 11:52:42;;;;;;;6.93;5.40;;;13.90;99.90;;;;;;5078546;28;20882;-61
2024/03/17 11:55:17;;;;;;;9.17;6.07;;;14.10;99.90;;;;;;5078120;28;20468;-62
2024/03/17 11:57:45;;;;;;;6.67;5.13;;;14.30;99.90;;;;;;5077911;28;20461;-62
2024/03/17 12:00:21;;;;;;;8.43;5.77;;;14.50;99.90;;;;;;5077396;28;20448;-61
2024/03/17 12:02:50;;;;;;;5.30;4.73;;;14.40;1.00;;;;;;5078267;28;20452;-61
2024/03/17 12:05:17;;;;;;;5.97;5.20;;;14.30;1.00;;;;;;5077974;28;20887;-61
2024/03/17 12:07:46;;;;;;;7.30;5.00;;;14.40;99.90;;;;;;5077351;28;20448;-61
2024/03/17 12:10:14;;;;;;;5.80;5.20;;;14.50;1.00;;;;;;5076317;28;20441;-61
2024/03/17 12:12:41;;;;;;;6.50;4.80;;;14.50;1.00;;;;;;5076510;28;20457;-61
2024/03/17 12:15:19;;;;;;;5.90;4.40;;;14.50;1.00;;;;;;5077386;28;20875;-62
2024/03/17 12:17:47;;;;;;;6.17;4.90;;;14.50;1.00;;;;;;5078023;28;20534;-61
2024/03/17 12:20:19;;;;;;;7.00;4.73;;;14.50;1.00;;;;;;5077661;28;20492;-61
2024/03/17 12:22:50;;;;;;;5.63;4.90;;;14.50;1.00;;;;;;5077183;28;20514;-61
2024/03/17 12:25:19;;;;;;;5.60;5.00;;;14.50;1.00;;;;;;5077712;28;20899;-61
2024/03/17 12:27:48;;;;;;;7.87;5.10;;;14.60;1.00;;;;;;5077501;28;20489;-61
2024/03/17 12:30:15;;;;;;;7.30;5.10;;;14.60;1.00;;;;;;5076947;28;20624;-61
2024/03/17 12:32:43;;;;;;;6.63;5.40;;;14.70;1.00;;;;;;5075705;28;20887;-62
2024/03/17 12:35:16;;;;;;;7.53;5.40;;;14.80;1.00;;;;;;5074510;28;20912;-61
2024/03/17 12:37:45;;;;;;;5.40;4.40;;;14.80;1.00;;;;;;5075869;28;20559;-61
2024/03/17 12:40:24;;;;;;;6.07;4.80;;;14.80;1.00;;;;;;5076812;28;20543;-62
2024/03/17 12:42:52;;;;;;;6.60;5.80;;;14.90;1.00;;;;;;5075929;28;20460;-62
2024/03/17 12:45:21;;;;;;;9.40;4.73;;;15.00;1.00;;;;;;5074960;28;20645;-62
2024/03/17 12:47:50;;;;;;;7.63;5.13;;;15.20;1.00;;;;;;5076350;28;20461;-62
2024/03/17 12:50:18;;;;;;;5.07;4.57;;;15.20;1.00;;;;;;5076762;28;20457;-62
2024/03/17 12:52:55;;;;;;;4.60;4.20;;;15.40;1.00;;;;;;5075920;28;20460;-62
2024/03/17 13:01:00;;;;;;;7.00;5.07;;;16.30;1.00;;;;;;5069248;28;20482;-61
2024/03/17 13:03:29;;;;;;;6.83;5.10;;;16.30;1.00;;;;;;5072245;28;20457;-61
2024/03/17 13:05:57;;;;;;;5.80;5.30;;;16.10;1.00;;;;;;5073680;28;20819;-61